createdAt,value
2018-10-19T00:01:38.959Z,101712.64
2018-10-19T00:04:12.843Z,101715.16
2018-10-19T00:06:46.718Z,101710.05
2018-10-19T00:09:20.576Z,101705.36
2018-10-19T00:11:54.376Z,101701.03
2018-10-19T00:14:28.333Z,101703.52
2018-10-19T00:17:02.215Z,101696.65
2018-10-19T00:19:36.012Z,101700.47
2018-10-19T00:22:09.870Z,101704.69
2018-10-19T00:24:43.746Z,101709.74
2018-10-19T00:27:17.605Z,101704.17
2018-10-19T00:29:51.473Z,101708.77
2018-10-19T00:32:25.304Z,101705.77
2018-10-19T00:34:59.179Z,101706.59
2018-10-19T00:37:33.026Z,101707.86
2018-10-19T00:40:07.111Z,101712.06
2018-10-19T00:42:40.971Z,101702.28
2018-10-19T00:45:15.065Z,101691.98
2018-10-19T00:47:48.860Z,101706.84
2018-10-19T00:50:22.704Z,101707.66
2018-10-19T00:52:56.561Z,101706.73
2018-10-19T00:55:30.415Z,101696.08
2018-10-19T00:58:04.272Z,101706.23
2018-10-19T01:00:41.221Z,101696.38
2018-10-19T01:03:15.162Z,101699.77
2018-10-19T01:05:49.013Z,101699.27
2018-10-19T01:08:22.850Z,101697.07
2018-10-19T01:10:56.754Z,101700.38
2018-10-19T01:13:30.576Z,101692.71
2018-10-19T01:16:04.450Z,101698.60
2018-10-19T01:18:38.398Z,101689.23
2018-10-19T01:21:12.327Z,101687.50
2018-10-19T01:23:46.129Z,101689.96
2018-10-19T01:26:20.024Z,101690.77
2018-10-19T01:28:54.277Z,101691.13
2018-10-19T01:31:28.607Z,101692.78
2018-10-19T01:34:02.587Z,101688.47
2018-10-19T01:36:42.415Z,101690.10
2018-10-19T01:39:16.424Z,101692.13
2018-10-19T01:41:50.513Z,101695.03
2018-10-19T01:44:24.453Z,101692.41
2018-10-19T01:46:58.419Z,101689.77
2018-10-19T01:49:32.388Z,101696.91
2018-10-19T01:52:06.710Z,101699.02
2018-10-19T01:54:40.676Z,101702.34
2018-10-19T01:57:14.708Z,101696.75
2018-10-19T01:59:48.690Z,101697.13
2018-10-19T02:02:22.667Z,101700.07
2018-10-19T02:04:56.776Z,101696.64
2018-10-19T02:07:30.894Z,101702.51
2018-10-19T02:10:05.485Z,101710.44
2018-10-19T02:12:39.506Z,101710.42
2018-10-19T02:15:13.481Z,101715.34
2018-10-19T02:17:47.459Z,101708.98
2018-10-19T02:20:21.411Z,101704.66
2018-10-19T02:22:55.391Z,101709.72
2018-10-19T02:25:29.372Z,101712.69
2018-10-19T02:28:03.409Z,101710.09
2018-10-19T02:30:37.387Z,101705.38
2018-10-19T02:33:11.764Z,101704.05
2018-10-19T02:35:45.700Z,101703.95
2018-10-19T02:38:19.653Z,101703.41
2018-10-19T02:40:53.638Z,101703.72
2018-10-19T02:43:27.777Z,101708.71
2018-10-19T02:46:01.708Z,101707.75
2018-10-19T02:48:35.699Z,101713.23
2018-10-19T02:51:09.672Z,101713.95
2018-10-19T02:53:43.683Z,101715.09
2018-10-19T02:56:17.604Z,101719.29
2018-10-19T02:58:51.599Z,101714.09
2018-10-19T03:01:25.546Z,101713.60
2018-10-19T03:03:59.528Z,101709.69
2018-10-19T03:06:33.479Z,101712.14
2018-10-19T03:09:10.274Z,101707.84
2018-10-19T03:11:44.275Z,101708.91
2018-10-19T03:14:18.417Z,101711.02
2018-10-19T03:16:52.364Z,101707.36
2018-10-19T03:19:26.416Z,101712.84
2018-10-19T03:22:00.373Z,101715.81
2018-10-19T03:24:34.353Z,101712.78
2018-10-19T03:27:09.480Z,101715.31
2018-10-19T03:29:43.489Z,101715.31
2018-10-19T03:32:17.513Z,101719.11
2018-10-19T03:34:51.520Z,101717.78
2018-10-19T03:37:25.468Z,101727.84
2018-10-19T03:39:59.454Z,101721.84
2018-10-19T03:42:33.411Z,101721.77
2018-10-19T03:45:07.829Z,101725.90
2018-10-19T03:47:41.778Z,101729.63
2018-10-19T03:50:15.786Z,101724.03
2018-10-19T03:52:49.776Z,101729.14
2018-10-19T03:55:23.799Z,101720.23
2018-10-19T03:57:57.726Z,101725.25
2018-10-19T04:00:31.792Z,101721.82
2018-10-19T04:03:06.018Z,101725.19
2018-10-19T04:05:39.975Z,101725.48
2018-10-19T04:08:13.941Z,101729.59
2018-10-19T04:10:47.884Z,101727.43
2018-10-19T04:13:21.820Z,101726.91
2018-10-19T04:15:55.882Z,101726.41
2018-10-19T04:18:29.998Z,101724.66
2018-10-19T04:21:04.188Z,101730.97
2018-10-19T04:23:38.078Z,101733.52
2018-10-19T04:26:12.071Z,101740.26
2018-10-19T04:28:46.011Z,101741.95
2018-10-19T04:31:20.360Z,101743.64
2018-10-19T04:33:54.323Z,101744.47
2018-10-19T04:36:28.340Z,101743.61
2018-10-19T04:39:02.317Z,101742.71
2018-10-19T04:41:36.490Z,101744.14
2018-10-19T04:44:10.766Z,101740.69
2018-10-19T04:46:44.765Z,101742.29
2018-10-19T04:49:18.730Z,101742.29
2018-10-19T04:51:52.730Z,101740.53
2018-10-19T04:54:26.649Z,101746.36
2018-10-19T04:57:00.643Z,101747.58
2018-10-19T04:59:34.586Z,101742.88
2018-10-19T05:02:08.683Z,101747.86
2018-10-19T05:04:42.826Z,101745.31
2018-10-19T05:07:16.798Z,101748.69
2018-10-19T05:09:50.749Z,101752.07
2018-10-19T05:12:24.774Z,101754.19
2018-10-19T05:14:58.718Z,101749.13
2018-10-19T05:17:32.651Z,101749.88
2018-10-19T05:20:08.181Z,101747.78
2018-10-19T05:22:42.190Z,101751.50
2018-10-19T05:25:16.239Z,101749.80
2018-10-19T05:27:50.641Z,101746.39
2018-10-19T05:30:24.666Z,101747.98
2018-10-19T05:32:59.135Z,101745.80
2018-10-19T05:35:32.993Z,101746.50
2018-10-19T05:38:07.200Z,101743.54
2018-10-19T05:40:41.111Z,101745.16
2018-10-19T05:43:15.200Z,101750.22
2018-10-19T05:45:51.960Z,101746.06
2018-10-19T05:48:25.939Z,101746.50
2018-10-19T05:50:59.996Z,101747.77
2018-10-19T05:53:34.028Z,101751.23
2018-10-19T05:56:08.933Z,101746.67
2018-10-19T05:58:42.964Z,101751.83
2018-10-19T06:01:16.894Z,101742.59
2018-10-19T06:03:50.891Z,101747.11
2018-10-19T06:06:24.868Z,101758.97
2018-10-19T06:08:59.046Z,101754.34
2018-10-19T06:11:33.043Z,101758.13
2018-10-19T06:14:07.657Z,101758.54
2018-10-19T06:16:41.631Z,101763.19
2018-10-19T06:19:15.623Z,101763.62
2018-10-19T06:21:49.542Z,101770.27
2018-10-19T06:24:23.603Z,101765.27
2018-10-19T06:26:57.550Z,101764.94
2018-10-19T06:29:31.590Z,101771.28
2018-10-19T06:32:05.925Z,101770.44
2018-10-19T06:34:39.934Z,101772.61
2018-10-19T06:37:13.895Z,101774.75
2018-10-19T06:39:48.858Z,101774.83
2018-10-19T06:42:22.812Z,101775.41
2018-10-19T06:44:56.891Z,101776.77
2018-10-19T06:47:30.841Z,101781.58
2018-10-19T06:50:06.090Z,101781.78
2018-10-19T06:52:40.609Z,101786.14
2018-10-19T06:55:18.677Z,101786.73
2018-10-19T06:57:52.651Z,101788.58
2018-10-19T07:00:26.690Z,101789.61
2018-10-19T07:03:00.621Z,101788.12
2018-10-19T07:05:34.692Z,101791.73
2018-10-19T07:08:09.048Z,101788.50
2018-10-19T07:10:43.514Z,101797.11
2018-10-19T07:13:17.512Z,101802.75
2018-10-19T07:15:51.557Z,101798.70
2018-10-19T07:18:25.544Z,101800.10
2018-10-19T07:20:59.606Z,101799.39
2018-10-19T07:23:33.567Z,101800.39
2018-10-19T07:26:07.767Z,101809.41
2018-10-19T07:28:41.670Z,101808.28
2018-10-19T07:31:15.687Z,101813.50
2018-10-19T07:33:49.784Z,101811.56
2018-10-19T07:36:24.234Z,101809.94
2018-10-19T07:38:58.208Z,101815.52
2018-10-19T07:41:32.165Z,101820.81
2018-10-19T07:44:06.471Z,101821.42
2018-10-19T07:46:40.583Z,101822.06
2018-10-19T07:49:14.648Z,101823.98
2018-10-19T07:51:48.805Z,101823.37
2018-10-19T07:54:22.812Z,101822.27
2018-10-19T07:56:56.968Z,101824.99
2018-10-19T07:59:30.989Z,101831.14
2018-10-19T08:02:05.592Z,101838.54
2018-10-19T08:04:39.496Z,101832.82
2018-10-19T08:07:13.601Z,101832.12
2018-10-19T08:09:47.650Z,101830.62
2018-10-19T08:12:21.735Z,101827.41
2018-10-19T08:14:55.885Z,101831.40
2018-10-19T08:17:29.986Z,101826.90
2018-10-19T08:20:04.116Z,101824.48
2018-10-19T08:22:38.146Z,101826.36
2018-10-19T08:25:12.171Z,101832.02
2018-10-19T08:27:46.320Z,101828.72
2018-10-19T08:30:20.353Z,101836.19
2018-10-19T08:32:54.314Z,101836.75
2018-10-19T08:35:28.270Z,101833.91
2018-10-19T08:38:02.666Z,101835.77
2018-10-19T08:40:36.638Z,101842.72
2018-10-19T08:43:10.698Z,101841.13
2018-10-19T08:45:44.680Z,101842.06
2018-10-19T08:48:18.831Z,101843.81
2018-10-19T08:50:52.749Z,101842.62
2018-10-19T08:53:26.813Z,101840.92
2018-10-19T08:56:00.794Z,101843.87
2018-10-19T08:58:34.859Z,101840.45
2018-10-19T09:01:08.846Z,101838.70
2018-10-19T09:03:42.954Z,101847.14
2018-10-19T09:06:17.040Z,101847.51
2018-10-19T09:08:51.022Z,101847.47
2018-10-19T09:11:25.076Z,101846.09
2018-10-19T09:13:59.016Z,101845.13
2018-10-19T09:16:32.970Z,101849.30
2018-10-19T09:19:07.039Z,101842.34
2018-10-19T09:21:41.110Z,101841.31
2018-10-19T09:24:15.113Z,101839.88
2018-10-19T09:26:49.112Z,101830.75
2018-10-19T09:29:23.262Z,101834.89
2018-10-19T09:31:57.304Z,101829.41
2018-10-19T09:34:31.318Z,101830.52
2018-10-19T09:37:06.049Z,101827.77
2018-10-19T09:39:40.070Z,101822.90
2018-10-19T09:42:14.161Z,101822.33
2018-10-19T09:44:48.232Z,101820.93
2018-10-19T09:47:22.346Z,101810.52
2018-10-19T09:49:56.388Z,101809.19
2018-10-19T09:52:30.345Z,101808.34
2018-10-19T09:55:04.512Z,101806.95
2018-10-19T09:57:38.600Z,101807.70
2018-10-19T10:00:18.319Z,101805.89
2018-10-19T10:02:52.345Z,101801.92
2018-10-19T10:05:26.479Z,101803.64
2018-10-19T10:08:01.628Z,101800.52
2018-10-19T10:10:35.685Z,101801.70
2018-10-19T10:13:12.962Z,101798.42
2018-10-19T10:15:48.060Z,101796.02
2018-10-19T10:18:21.997Z,101796.73
2018-10-19T10:20:56.062Z,101799.30
2018-10-19T10:23:30.166Z,101798.19
2018-10-19T10:26:04.233Z,101806.34
2018-10-19T10:28:38.173Z,101798.50
2018-10-19T10:31:12.422Z,101797.81
2018-10-19T10:33:46.365Z,101804.00
2018-10-19T10:36:20.451Z,101801.68
2018-10-19T10:38:54.569Z,101800.21
2018-10-19T10:41:28.606Z,101797.28
2018-10-19T10:44:02.559Z,101796.48
2018-10-19T10:46:36.577Z,101795.95
2018-10-19T10:49:10.578Z,101791.70
2018-10-19T10:51:44.677Z,101791.66
2018-10-19T10:54:18.596Z,101786.30
2018-10-19T10:56:52.562Z,101783.34
2018-10-19T10:59:26.502Z,101788.58
2018-10-19T11:02:00.477Z,101783.44
2018-10-19T11:04:34.418Z,101777.46
2018-10-19T11:07:08.600Z,101784.34
2018-10-19T11:09:42.517Z,101774.55
2018-10-19T11:12:16.526Z,101763.03
2018-10-19T11:14:50.496Z,101763.87
2018-10-19T11:17:24.539Z,101756.38
2018-10-19T11:19:58.469Z,101762.81
2018-10-19T11:22:32.444Z,101761.60
2018-10-19T11:25:06.957Z,101759.63
2018-10-19T11:27:41.089Z,101755.42
2018-10-19T11:30:15.028Z,101757.32
2018-10-19T11:32:48.989Z,101749.08
2018-10-19T11:35:22.934Z,101752.66
2018-10-19T11:37:56.980Z,101748.02
2018-10-19T11:40:37.945Z,101742.66
2018-10-19T11:43:12.159Z,101746.92
2018-10-19T11:45:46.048Z,101748.16
2018-10-19T11:48:20.058Z,101746.88
2018-10-19T11:50:54.059Z,101748.78
2018-10-19T11:53:28.113Z,101743.94
2018-10-19T11:56:02.075Z,101739.79
2018-10-19T11:58:41.446Z,101730.91
2018-10-19T12:01:15.435Z,101726.64
2018-10-19T12:03:49.429Z,101728.17
2018-10-19T12:06:23.375Z,101726.58
2018-10-19T12:08:57.436Z,101712.91
2018-10-19T12:11:31.388Z,101712.02
2018-10-19T12:14:05.571Z,101705.64
2018-10-19T12:16:39.688Z,101710.83
2018-10-19T12:19:13.796Z,101713.66
2018-10-19T12:21:47.665Z,101717.34
2018-10-19T12:24:21.654Z,101710.81
2018-10-19T12:26:55.620Z,101709.60
2018-10-19T12:29:29.628Z,101713.19
2018-10-19T12:32:03.576Z,101712.69
2018-10-19T12:34:37.625Z,101710.12
2018-10-19T12:37:12.268Z,101705.94
2018-10-19T12:39:46.249Z,101700.41
2018-10-19T12:42:20.189Z,101709.13
2018-10-19T12:44:54.185Z,101703.57
2018-10-19T12:47:35.873Z,101695.54
2018-10-19T12:50:10.083Z,101698.64
2018-10-19T12:52:44.033Z,101696.96
2018-10-19T12:55:18.062Z,101699.93
2018-10-19T12:57:52.000Z,101695.22
2018-10-19T13:00:25.984Z,101698.64
2018-10-19T13:02:59.917Z,101698.72
2018-10-19T13:05:34.043Z,101694.92
2018-10-19T13:08:07.976Z,101692.84
2018-10-19T13:10:41.958Z,101690.55
2018-10-19T13:13:16.281Z,101684.80
2018-10-19T13:15:50.277Z,101678.69
2018-10-19T13:18:24.186Z,101684.62
2018-10-19T13:20:58.450Z,101688.48
2018-10-19T13:23:33.016Z,101684.14
2018-10-19T13:26:07.097Z,101678.52
2018-10-19T13:28:41.035Z,101677.68
2018-10-19T13:31:15.093Z,101671.65
2018-10-19T13:33:49.095Z,101671.73
2018-10-19T13:36:23.183Z,101669.72
2018-10-19T13:38:57.145Z,101667.22
2018-10-19T13:41:31.176Z,101666.95
2018-10-19T13:44:05.180Z,101664.97
2018-10-19T13:46:39.155Z,101666.80
2018-10-19T13:49:13.110Z,101663.08
2018-10-19T13:51:47.700Z,101663.66
2018-10-19T13:54:21.695Z,101662.11
2018-10-19T13:56:55.792Z,101667.47
2018-10-19T13:59:29.711Z,101666.72
2018-10-19T14:02:04.321Z,101658.23
2018-10-19T14:04:38.370Z,101662.08
2018-10-19T14:07:12.489Z,101660.03
2018-10-19T14:09:46.449Z,101658.02
2018-10-19T14:12:20.499Z,101649.12
2018-10-19T14:14:54.605Z,101655.56
2018-10-19T14:17:28.635Z,101648.35
2018-10-19T14:20:02.699Z,101649.39
2018-10-19T14:22:37.344Z,101649.52
2018-10-19T14:25:12.479Z,101644.11
2018-10-19T14:27:46.625Z,101639.91
2018-10-19T14:30:20.632Z,101644.73
2018-10-19T14:32:54.673Z,101637.19
2018-10-19T14:35:28.647Z,101637.70
2018-10-19T14:38:02.641Z,101640.42
2018-10-19T14:40:36.617Z,101638.41
2018-10-19T14:43:10.649Z,101633.78
2018-10-19T14:45:44.642Z,101629.98
2018-10-19T14:48:18.690Z,101626.45
2018-10-19T14:50:52.635Z,101637.25
2018-10-19T14:53:26.632Z,101634.17
2018-10-19T14:56:00.575Z,101633.27
2018-10-19T14:58:34.705Z,101628.53
2018-10-19T15:01:08.718Z,101628.12
2018-10-19T15:03:42.761Z,101631.14
2018-10-19T15:06:17.026Z,101635.00
2018-10-19T15:08:51.219Z,101640.65
2018-10-19T15:11:25.466Z,101637.80
2018-10-19T15:13:59.210Z,101638.80
2018-10-19T15:16:33.227Z,101641.94
2018-10-19T15:19:07.211Z,101645.00
2018-10-19T15:21:41.309Z,101651.88
2018-10-19T15:24:15.464Z,101644.70
2018-10-19T15:26:49.391Z,101651.53
2018-10-19T15:29:23.571Z,101652.77
2018-10-19T15:31:57.481Z,101660.05
2018-10-19T15:34:31.467Z,101661.81
2018-10-19T15:37:05.403Z,101657.56
2018-10-19T15:39:39.592Z,101657.98
2018-10-19T15:42:13.559Z,101654.13
2018-10-19T15:44:47.722Z,101653.28
2018-10-19T15:47:25.478Z,101653.73
2018-10-19T15:49:59.444Z,101657.63
2018-10-19T15:52:33.390Z,101653.83
2018-10-19T15:55:07.830Z,101652.20
2018-10-19T15:57:41.956Z,101655.72
2018-10-19T16:00:16.173Z,101650.67
2018-10-19T16:02:50.238Z,101652.94
2018-10-19T16:05:24.292Z,101650.47
2018-10-19T16:07:58.261Z,101644.19
2018-10-19T16:10:38.762Z,101652.44
2018-10-19T16:13:12.800Z,101652.75
2018-10-19T16:15:46.884Z,101646.46
2018-10-19T16:18:20.866Z,101655.53
2018-10-19T16:20:54.881Z,101658.62
2018-10-19T16:23:28.821Z,101665.20
2018-10-19T16:26:02.931Z,101663.71
2018-10-19T16:28:37.023Z,101675.81
2018-10-19T16:31:11.077Z,101669.47
2018-10-19T16:33:45.079Z,101674.27
2018-10-19T16:36:19.180Z,101677.48
2018-10-19T16:38:53.258Z,101680.61
2018-10-19T16:41:27.271Z,101680.27
2018-10-19T16:44:01.204Z,101691.02
2018-10-19T16:46:35.204Z,101684.72
2018-10-19T16:49:09.219Z,101689.47
2018-10-19T16:51:43.177Z,101690.83
2018-10-19T16:54:17.283Z,101689.65
2018-10-19T16:56:51.249Z,101696.17
2018-10-19T16:59:25.243Z,101708.59
2018-10-19T17:02:00.566Z,101703.47
2018-10-19T17:04:34.572Z,101706.05
2018-10-19T17:07:08.745Z,101702.64
2018-10-19T17:09:42.697Z,101704.84
2018-10-19T17:12:18.108Z,101710.44
2018-10-19T17:14:52.068Z,101710.48
2018-10-19T17:17:26.070Z,101712.64
2018-10-19T17:20:00.032Z,101713.49
2018-10-19T17:22:34.030Z,101716.97
2018-10-19T17:25:10.954Z,101723.00
2018-10-19T17:27:44.997Z,101718.77
2018-10-19T17:30:19.109Z,101712.79
2018-10-19T17:32:53.240Z,101717.06
2018-10-19T17:35:27.129Z,101713.72
2018-10-19T17:38:01.201Z,101725.67
2018-10-19T17:40:35.159Z,101721.02
2018-10-19T17:43:09.170Z,101724.92
2018-10-19T17:45:43.159Z,101731.33
2018-10-19T17:48:17.362Z,101738.17
2018-10-19T17:50:51.292Z,101738.61
2018-10-19T17:53:25.383Z,101738.66
2018-10-19T17:55:59.356Z,101736.11
2018-10-19T17:58:33.402Z,101737.83
2018-10-19T18:01:07.424Z,101736.55
2018-10-19T18:03:41.460Z,101741.69
2018-10-19T18:06:15.563Z,101734.89
2018-10-19T18:08:49.575Z,101732.75
2018-10-19T18:11:23.690Z,101744.68
2018-10-19T18:13:57.690Z,101743.42
2018-10-19T18:16:31.636Z,101745.14
2018-10-19T18:19:06.301Z,101750.25
2018-10-19T18:21:40.335Z,101753.22
2018-10-19T18:24:14.283Z,101758.30
2018-10-19T18:26:48.303Z,101755.30
2018-10-19T18:29:23.411Z,101758.71
2018-10-19T18:31:57.456Z,101754.44
2018-10-19T18:34:31.806Z,101763.37
2018-10-19T18:37:09.128Z,101771.45
2018-10-19T18:39:43.242Z,101775.25
2018-10-19T18:42:17.204Z,101779.50
2018-10-19T18:44:51.174Z,101773.95
2018-10-19T18:47:25.123Z,101776.50
2018-10-19T18:49:59.195Z,101776.47
2018-10-19T18:52:33.154Z,101785.38
2018-10-19T18:55:07.471Z,101789.17
2018-10-19T18:57:41.464Z,101793.82
2018-10-19T19:00:15.462Z,101796.80
2018-10-19T19:02:49.381Z,101801.03
2018-10-19T19:05:23.373Z,101789.56
2018-10-19T19:07:57.343Z,101792.92
2018-10-19T19:10:31.327Z,101792.48
2018-10-19T19:13:10.441Z,101792.48
2018-10-19T19:15:44.498Z,101801.78
2018-10-19T19:18:18.419Z,101802.57
2018-10-19T19:20:52.405Z,101798.70
2018-10-19T19:23:26.381Z,101796.95
2018-10-19T19:26:10.318Z,101793.99
2018-10-19T19:28:44.553Z,101804.16
2018-10-19T19:31:18.643Z,101805.41
2018-10-19T19:33:57.848Z,101805.81
2018-10-19T19:36:31.857Z,101795.14
2018-10-19T19:39:08.325Z,101797.22
2018-10-19T19:41:47.309Z,101797.64
2018-10-19T19:44:21.263Z,101795.92
2018-10-19T19:46:55.322Z,101800.95
2018-10-19T19:49:35.390Z,101799.23
2018-10-19T19:52:09.398Z,101795.75
2018-10-19T19:54:43.347Z,101799.57
2018-10-19T19:57:17.449Z,101797.00
2018-10-19T19:59:51.627Z,101797.81
2018-10-19T20:02:25.623Z,101799.09
2018-10-19T20:04:59.619Z,101799.45
2018-10-19T20:07:33.699Z,101788.39
2018-10-19T20:10:08.137Z,101793.02
2018-10-19T20:12:42.123Z,101789.59
2018-10-19T20:15:16.063Z,101792.11
2018-10-19T20:17:50.048Z,101792.11
2018-10-19T20:20:24.298Z,101782.32
2018-10-19T20:22:59.475Z,101786.07
2018-10-19T20:25:33.560Z,101794.97
2018-10-19T20:28:08.270Z,101794.48
2018-10-19T20:30:42.668Z,101791.09
2018-10-19T20:33:22.792Z,101787.73
2018-10-19T20:35:56.746Z,101782.22
2018-10-19T20:38:31.241Z,101770.38
2018-10-19T20:41:05.673Z,101778.86
2018-10-19T20:43:39.972Z,101785.22
2018-10-19T20:46:14.340Z,101780.95
2018-10-19T20:48:48.344Z,101775.92
2018-10-19T20:51:22.310Z,101782.25
2018-10-19T20:53:56.417Z,101786.07
2018-10-19T20:56:30.654Z,101791.16
2018-10-19T20:59:04.809Z,101786.03
2018-10-19T21:01:38.759Z,101778.83
2018-10-19T21:04:12.837Z,101778.41
2018-10-19T21:06:46.823Z,101768.23
2018-10-19T21:09:20.783Z,101761.83
2018-10-19T21:11:54.719Z,101762.68
2018-10-19T21:14:28.807Z,101768.59
2018-10-19T21:17:02.751Z,101777.91
2018-10-19T21:19:36.711Z,101774.41
2018-10-19T21:22:10.521Z,101779.47
2018-10-19T21:24:44.432Z,101786.63
2018-10-19T21:27:18.422Z,101780.66
2018-10-19T21:29:52.618Z,101779.73
2018-10-19T21:32:26.514Z,101781.78
2018-10-19T21:35:00.419Z,101789.37
2018-10-19T21:37:34.476Z,101797.80
2018-10-19T21:40:08.469Z,101799.41
2018-10-19T21:42:42.320Z,101806.60
2018-10-19T21:45:16.264Z,101806.14
2018-10-19T21:47:50.259Z,101812.95
2018-10-19T21:50:24.534Z,101814.66
2018-10-19T21:52:58.521Z,101807.92
2018-10-19T21:55:32.408Z,101808.38
2018-10-19T21:58:06.480Z,101803.73
2018-10-19T22:00:40.629Z,101810.97
2018-10-19T22:03:14.517Z,101811.86
2018-10-19T22:05:48.622Z,101811.91
2018-10-19T22:08:22.601Z,101819.19
2018-10-19T22:10:56.552Z,101826.86
2018-10-19T22:13:30.812Z,101832.83
2018-10-19T22:16:05.137Z,101824.35
2018-10-19T22:18:38.954Z,101832.91
2018-10-19T22:21:12.785Z,101834.22
2018-10-19T22:23:52.947Z,101829.17
2018-10-19T22:26:26.810Z,101827.98
2018-10-19T22:29:00.804Z,101828.02
2018-10-19T22:31:34.706Z,101826.33
2018-10-19T22:34:08.491Z,101818.66
2018-10-19T22:36:42.443Z,101826.28
2018-10-19T22:39:16.368Z,101823.74
2018-10-19T22:41:50.460Z,101823.74
2018-10-19T22:44:24.346Z,101830.95
2018-10-19T22:46:58.513Z,101823.35
2018-10-19T22:49:32.585Z,101831.87
2018-10-19T22:52:06.737Z,101822.55
2018-10-19T22:54:40.704Z,101826.00
2018-10-19T22:57:14.768Z,101826.00
2018-10-19T22:59:48.781Z,101822.19
2018-10-19T23:02:22.722Z,101823.49
2018-10-19T23:04:56.660Z,101816.70
2018-10-19T23:07:30.645Z,101823.91
2018-10-19T23:10:04.860Z,101816.64
2018-10-19T23:12:38.905Z,101820.48
2018-10-19T23:15:12.753Z,101828.94
2018-10-19T23:17:46.698Z,101828.94
2018-10-19T23:20:20.539Z,101818.27
2018-10-19T23:22:54.992Z,101820.38
2018-10-19T23:25:28.816Z,101822.47
2018-10-19T23:28:02.853Z,101822.47
2018-10-19T23:30:36.665Z,101823.73
2018-10-19T23:33:10.538Z,101830.95
2018-10-19T23:35:44.360Z,101836.03
2018-10-19T23:38:18.352Z,101829.64
2018-10-19T23:40:52.489Z,101830.95
2018-10-19T23:43:26.402Z,101837.34
2018-10-19T23:46:00.389Z,101840.34
2018-10-19T23:48:34.242Z,101845.48
2018-10-19T23:51:08.129Z,101848.48
2018-10-19T23:53:42.129Z,101848.02
2018-10-19T23:56:15.961Z,101856.55
2018-10-19T23:58:50.305Z,101850.67
